Main page
METAR-TAF:

METAR-TAF

Airports :

Tahiti, French Polynesia

Fa'a'ā International Airport

latitude: 17-33S, longitude: 149-37W, elevation: 2 m

Current weather observation

The report was made 21 minutes ago, at 00:00 UTC
Wind 8 kt from the North/Northeast
Temperature 30°C
Humidity 62%
Pressure 1011 hPa
Visibility 10 km or more
Few clouds at a height of 2000 ft

METAR: NTAA 200000Z 03008KT 9999 FEW020 30/22 Q1011 NOSIG

Time: 14:21 (00:21 UTC)

Forecast

The report was made 1 hour and 21 minutes ago, at 23:00 UTC
Forecast valid from 20 at 00 UTC to 21 at 06 UTC
Wind 10 kt from the North/Northeast
Visibility 10 km or more
Few clouds at a height of 2500 ft
Scattered clouds at a height of 5000 ft
Becoming
from 20 at 03 UTC to 20 at 05 UTC
Wind 3 kt from variable directions
Becoming
from 20 at 19 UTC to 20 at 20 UTC
Wind 12 kt from the North/Northeast

TAF: NTAA 192300Z 2000/2106 02010KT 9999 FEW025 SCT050 BECMG 2003/2005 VRB03KT BECMG 2019/2020 02012KT

Weather observations and forecasts of more than 4000 airports (METAR and TAF reports).

The available stations are represented by yellow and red dots on the map.

Hover mouse over dot to see the name of the station.

Then click to see weather observations and forecasts.

To change the map : click on the green buttons with a black cross to zoom in, on the green button with a dash to zoom out, or on the green arrows for adjacent maps.


METAR-TAF: